sensor_id;sensor_type;location;lat;lon;timestamp;temperature;humidity
17986;DHT22;9118;48.122;11.546;2023-02-01T00:01:07;4.50;99.90
17986;DHT22;9118;48.122;11.546;2023-02-01T00:03:34;4.80;99.90
17986;DHT22;9118;48.122;11.546;2023-02-01T00:06:02;4.50;99.90
17986;DHT22;9118;48.122;11.546;2023-02-01T00:08:29;4.50;99.90
17986;DHT22;9118;48.122;11.546;2023-02-01T00:11:00;4.80;99.90
17986;DHT22;9118;48.122;11.546;2023-02-01T00:13:30;5.00;99.90
17986;DHT22;9118;48.122;11.546;2023-02-01T00:16:03;4.80;99.90
17986;DHT22;9118;48.122;11.546;2023-02-01T00:18:31;4.70;99.90
17986;DHT22;9118;48.122;11.546;2023-02-01T00:20:58;4.50;99.90
17986;DHT22;9118;48.122;11.546;2023-02-01T00:23:26;4.50;99.90
17986;DHT22;9118;48.122;11.546;2023-02-01T00:25:53;5.20;99.90
17986;DHT22;9118;48.122;11.546;2023-02-01T00:28:20;4.70;99.90
17986;DHT22;9118;48.122;11.546;2023-02-01T00:30:47;4.50;99.90
17986;DHT22;9118;48.122;11.546;2023-02-01T00:33:22;4.30;99.90
17986;DHT22;9118;48.122;11.546;2023-02-01T00:35:50;4.60;99.90
17986;DHT22;9118;48.122;11.546;2023-02-01T00:38:17;5.20;99.90
17986;DHT22;9118;48.122;11.546;2023-02-01T00:40:44;4.60;99.90
17986;DHT22;9118;48.122;11.546;2023-02-01T00:43:11;4.80;99.90
17986;DHT22;9118;48.122;11.546;2023-02-01T00:45:38;4.40;99.90
17986;DHT22;9118;48.122;11.546;2023-02-01T00:48:05;5.00;99.90
17986;DHT22;9118;48.122;11.546;2023-02-01T00:50:32;4.20;99.90
17986;DHT22;9118;48.122;11.546;2023-02-01T00:53:00;4.40;99.90
17986;DHT22;9118;48.122;11.546;2023-02-01T00:55:27;4.10;99.90
17986;DHT22;9118;48.122;11.546;2023-02-01T00:57:54;4.40;99.90
17986;DHT22;9118;48.122;11.546;2023-02-01T01:00:21;4.50;99.90
17986;DHT22;9118;48.122;11.546;2023-02-01T01:02:48;4.00;99.90
17986;DHT22;9118;48.122;11.546;2023-02-01T01:05:15;4.00;99.90
17986;DHT22;9118;48.122;11.546;2023-02-01T01:07:42;4.00;99.90
17986;DHT22;9118;48.122;11.546;2023-02-01T01:10:11;3.90;99.90
17986;DHT22;9118;48.122;11.546;2023-02-01T01:12:38;4.10;99.90
17986;DHT22;9118;48.122;11.546;2023-02-01T01:15:06;4.60;99.90
17986;DHT22;9118;48.122;11.546;2023-02-01T01:17:33;4.10;99.90
17986;DHT22;9118;48.122;11.546;2023-02-01T01:20:00;4.50;99.90
17986;DHT22;9118;48.122;11.546;2023-02-01T01:22:27;4.00;99.90
17986;DHT22;9118;48.122;11.546;2023-02-01T01:24:54;4.20;99.90
17986;DHT22;9118;48.122;11.546;2023-02-01T01:42:12;4.00;99.90
17986;DHT22;9118;48.122;11.546;2023-02-01T01:47:33;3.90;99.90
17986;DHT22;9118;48.122;11.546;2023-02-01T01:50:02;4.10;99.90
17986;DHT22;9118;48.122;11.546;2023-02-01T01:52:30;4.20;99.90
17986;DHT22;9118;48.122;11.546;2023-02-01T01:54:58;4.90;99.90
17986;DHT22;9118;48.122;11.546;2023-02-01T01:57:27;4.00;99.90
17986;DHT22;9118;48.122;11.546;2023-02-01T02:00:01;3.90;99.90
17986;DHT22;9118;48.122;11.546;2023-02-01T02:02:30;3.80;99.90
17986;DHT22;9118;48.122;11.546;2023-02-01T02:04:57;3.80;99.90
17986;DHT22;9118;48.122;11.546;2023-02-01T02:07:28;4.00;99.90
17986;DHT22;9118;48.122;11.546;2023-02-01T02:09:57;3.70;99.90
17986;DHT22;9118;48.122;11.546;2023-02-01T02:12:27;3.80;99.90
17986;DHT22;9118;48.122;11.546;2023-02-01T02:14:56;3.40;99.90
17986;DHT22;9118;48.122;11.546;2023-02-01T02:17:31;3.60;99.90
17986;DHT22;9118;48.122;11.546;2023-02-01T02:20:30;3.50;99.90
17986;DHT22;9118;48.122;11.546;2023-02-01T02:26:39;3.40;99.90
17986;DHT22;9118;48.122;11.546;2023-02-01T02:29:47;3.50;99.90
17986;DHT22;9118;48.122;11.546;2023-02-01T02:35:18;3.60;99.90
17986;DHT22;9118;48.122;11.546;2023-02-01T02:37:54;3.80;99.90
17986;DHT22;9118;48.122;11.546;2023-02-01T02:40:28;3.50;99.90
17986;DHT22;9118;48.122;11.546;2023-02-01T02:43:03;3.90;99.90
17986;DHT22;9118;48.122;11.546;2023-02-01T02:45:52;4.00;99.90
17986;DHT22;9118;48.122;11.546;2023-02-01T02:48:46;3.50;99.90
17986;DHT22;9118;48.122;11.546;2023-02-01T02:51:21;3.60;99.90
17986;DHT22;9118;48.122;11.546;2023-02-01T02:54:10;3.70;99.90
17986;DHT22;9118;48.122;11.546;2023-02-01T02:56:56;3.60;99.90
17986;DHT22;9118;48.122;11.546;2023-02-01T02:59:43;4.20;99.90
17986;DHT22;9118;48.122;11.546;2023-02-01T03:02:29;4.10;99.90
17986;DHT22;9118;48.122;11.546;2023-02-01T03:05:14;3.90;99.90
17986;DHT22;9118;48.122;11.546;2023-02-01T03:08:02;3.80;99.90
17986;DHT22;9118;48.122;11.546;2023-02-01T03:10:48;3.80;99.90
17986;DHT22;9118;48.122;11.546;2023-02-01T03:13:23;3.80;99.90
17986;DHT22;9118;48.122;11.546;2023-02-01T03:15:55;3.90;99.90
17986;DHT22;9118;48.122;11.546;2023-02-01T03:18:28;4.40;99.90
17986;DHT22;9118;48.122;11.546;2023-02-01T03:20:59;4.30;99.90
17986;DHT22;9118;48.122;11.546;2023-02-01T03:23:34;3.80;99.90
17986;DHT22;9118;48.122;11.546;2023-02-01T03:26:04;4.50;99.90
17986;DHT22;9118;48.122;11.546;2023-02-01T03:28:33;4.10;99.90
17986;DHT22;9118;48.122;11.546;2023-02-01T03:31:01;4.10;99.90
17986;DHT22;9118;48.122;11.546;2023-02-01T03:33:29;4.10;99.90
17986;DHT22;9118;48.122;11.546;2023-02-01T03:36:05;3.90;99.90
17986;DHT22;9118;48.122;11.546;2023-02-01T03:38:40;4.30;99.90
17986;DHT22;9118;48.122;11.546;2023-02-01T03:41:12;4.10;99.90
17986;DHT22;9118;48.122;11.546;2023-02-01T03:43:49;4.40;99.90
17986;DHT22;9118;48.122;11.546;2023-02-01T03:46:21;4.00;99.90
17986;DHT22;9118;48.122;11.546;2023-02-01T03:48:50;4.50;99.90
17986;DHT22;9118;48.122;11.546;2023-02-01T03:51:19;4.20;99.90
17986;DHT22;9118;48.122;11.546;2023-02-01T03:53:49;4.00;99.90
17986;DHT22;9118;48.122;11.546;2023-02-01T03:56:17;4.10;99.90
17986;DHT22;9118;48.122;11.546;2023-02-01T03:58:45;4.40;99.90
17986;DHT22;9118;48.122;11.546;2023-02-01T04:01:25;4.10;99.90
17986;DHT22;9118;48.122;11.546;2023-02-01T04:03:52;4.20;99.90
17986;DHT22;9118;48.122;11.546;2023-02-01T04:06:20;3.80;99.90
17986;DHT22;9118;48.122;11.546;2023-02-01T04:08:48;4.40;99.90
17986;DHT22;9118;48.122;11.546;2023-02-01T04:11:15;4.70;99.90
17986;DHT22;9118;48.122;11.546;2023-02-01T04:13:42;4.40;99.90
17986;DHT22;9118;48.122;11.546;2023-02-01T04:16:09;4.50;99.90
17986;DHT22;9118;48.122;11.546;2023-02-01T04:18:36;4.40;99.90
17986;DHT22;9118;48.122;11.546;2023-02-01T04:21:04;4.10;99.90
17986;DHT22;9118;48.122;11.546;2023-02-01T04:23:31;4.10;99.90
17986;DHT22;9118;48.122;11.546;2023-02-01T04:26:04;4.40;99.90
17986;DHT22;9118;48.122;11.546;2023-02-01T04:28:31;4.10;99.90
17986;DHT22;9118;48.122;11.546;2023-02-01T04:30:58;4.50;99.90
17986;DHT22;9118;48.122;11.546;2023-02-01T04:33:26;4.20;99.90
17986;DHT22;9118;48.122;11.546;2023-02-01T04:35:52;4.80;99.90
17986;DHT22;9118;48.122;11.546;2023-02-01T04:38:19;4.20;99.90
17986;DHT22;9118;48.122;11.546;2023-02-01T04:40:47;4.20;99.90
17986;DHT22;9118;48.122;11.546;2023-02-01T04:43:16;4.10;99.90
17986;DHT22;9118;48.122;11.546;2023-02-01T04:45:47;4.20;99.90
17986;DHT22;9118;48.122;11.546;2023-02-01T04:48:15;4.10;99.90
17986;DHT22;9118;48.122;11.546;2023-02-01T04:50:43;4.00;99.90
17986;DHT22;9118;48.122;11.546;2023-02-01T04:53:10;4.20;99.90
17986;DHT22;9118;48.122;11.546;2023-02-01T04:55:37;4.10;99.90
17986;DHT22;9118;48.122;11.546;2023-02-01T04:58:04;4.10;99.90
17986;DHT22;9118;48.122;11.546;2023-02-01T05:00:33;4.10;99.90
17986;DHT22;9118;48.122;11.546;2023-02-01T05:03:00;4.10;99.90
17986;DHT22;9118;48.122;11.546;2023-02-01T05:05:27;4.10;99.90
17986;DHT22;9118;48.122;11.546;2023-02-01T05:07:54;4.60;99.90
17986;DHT22;9118;48.122;11.546;2023-02-01T05:10:21;4.00;99.90
17986;DHT22;9118;48.122;11.546;2023-02-01T05:12:48;4.50;99.90
17986;DHT22;9118;48.122;11.546;2023-02-01T05:15:34;4.20;99.90
17986;DHT22;9118;48.122;11.546;2023-02-01T05:18:01;4.40;99.90
17986;DHT22;9118;48.122;11.546;2023-02-01T05:20:28;4.10;99.90
17986;DHT22;9118;48.122;11.546;2023-02-01T05:22:55;4.60;99.90
17986;DHT22;9118;48.122;11.546;2023-02-01T05:25:22;4.40;99.90
17986;DHT22;9118;48.122;11.546;2023-02-01T05:27:49;4.20;99.90
17986;DHT22;9118;48.122;11.546;2023-02-01T05:30:16;3.90;99.90
17986;DHT22;9118;48.122;11.546;2023-02-01T05:32:44;3.90;99.90
17986;DHT22;9118;48.122;11.546;2023-02-01T05:35:11;4.00;99.90
17986;DHT22;9118;48.122;11.546;2023-02-01T05:37:38;3.90;99.90
17986;DHT22;9118;48.122;11.546;2023-02-01T05:40:06;4.10;99.90
17986;DHT22;9118;48.122;11.546;2023-02-01T05:42:33;4.10;99.90
17986;DHT22;9118;48.122;11.546;2023-02-01T05:45:00;4.10;99.90
17986;DHT22;9118;48.122;11.546;2023-02-01T05:47:27;4.20;99.90
17986;DHT22;9118;48.122;11.546;2023-02-01T05:49:56;4.20;99.90
17986;DHT22;9118;48.122;11.546;2023-02-01T05:52:23;3.70;99.90
17986;DHT22;9118;48.122;11.546;2023-02-01T05:54:50;4.30;99.90
17986;DHT22;9118;48.122;11.546;2023-02-01T05:57:18;4.10;99.90
17986;DHT22;9118;48.122;11.546;2023-02-01T05:59:45;4.30;99.90
17986;DHT22;9118;48.122;11.546;2023-02-01T06:02:13;4.20;99.90
17986;DHT22;9118;48.122;11.546;2023-02-01T06:04:40;3.90;99.90
17986;DHT22;9118;48.122;11.546;2023-02-01T06:07:09;4.10;99.90
17986;DHT22;9118;48.122;11.546;2023-02-01T06:09:36;4.10;99.90
17986;DHT22;9118;48.122;11.546;2023-02-01T06:12:03;4.10;99.90
17986;DHT22;9118;48.122;11.546;2023-02-01T06:14:31;4.00;99.90
17986;DHT22;9118;48.122;11.546;2023-02-01T06:16:58;4.10;99.90
17986;DHT22;9118;48.122;11.546;2023-02-01T06:19:25;3.90;99.90
17986;DHT22;9118;48.122;11.546;2023-02-01T06:21:52;4.60;99.90
17986;DHT22;9118;48.122;11.546;2023-02-01T06:24:20;4.10;99.90
17986;DHT22;9118;48.122;11.546;2023-02-01T06:26:47;4.20;99.90
17986;DHT22;9118;48.122;11.546;2023-02-01T06:29:15;4.50;99.90
17986;DHT22;9118;48.122;11.546;2023-02-01T06:31:42;4.20;99.90
17986;DHT22;9118;48.122;11.546;2023-02-01T06:34:09;3.90;99.90
17986;DHT22;9118;48.122;11.546;2023-02-01T06:36:36;4.20;99.90
17986;DHT22;9118;48.122;11.546;2023-02-01T06:39:03;4.10;99.90
17986;DHT22;9118;48.122;11.546;2023-02-01T06:41:31;4.40;99.90
17986;DHT22;9118;48.122;11.546;2023-02-01T06:44:00;4.20;99.90
17986;DHT22;9118;48.122;11.546;2023-02-01T06:46:29;5.00;99.90
17986;DHT22;9118;48.122;11.546;2023-02-01T06:48:56;4.30;99.90
17986;DHT22;9118;48.122;11.546;2023-02-01T06:51:26;4.50;99.90
17986;DHT22;9118;48.122;11.546;2023-02-01T06:53:54;4.20;99.90
17986;DHT22;9118;48.122;11.546;2023-02-01T06:56:21;4.80;99.90
17986;DHT22;9118;48.122;11.546;2023-02-01T06:58:49;4.60;99.90
17986;DHT22;9118;48.122;11.546;2023-02-01T07:01:17;4.30;99.90
17986;DHT22;9118;48.122;11.546;2023-02-01T07:03:47;4.20;99.90
17986;DHT22;9118;48.122;11.546;2023-02-01T07:06:14;4.30;99.90
17986;DHT22;9118;48.122;11.546;2023-02-01T07:08:41;4.40;99.90
17986;DHT22;9118;48.122;11.546;2023-02-01T07:11:11;4.30;99.90
17986;DHT22;9118;48.122;11.546;2023-02-01T07:13:39;4.00;99.90
17986;DHT22;9118;48.122;11.546;2023-02-01T07:16:10;4.40;99.90
17986;DHT22;9118;48.122;11.546;2023-02-01T07:18:37;4.70;99.90
17986;DHT22;9118;48.122;11.546;2023-02-01T07:21:05;4.70;99.90
17986;DHT22;9118;48.122;11.546;2023-02-01T07:23:32;4.40;99.90
17986;DHT22;9118;48.122;11.546;2023-02-01T07:26:00;4.90;99.90
17986;DHT22;9118;48.122;11.546;2023-02-01T07:28:29;4.40;99.90
17986;DHT22;9118;48.122;11.546;2023-02-01T07:31:02;4.80;99.90
17986;DHT22;9118;48.122;11.546;2023-02-01T07:33:31;4.60;99.90
17986;DHT22;9118;48.122;11.546;2023-02-01T07:35:59;4.40;99.90
17986;DHT22;9118;48.122;11.546;2023-02-01T07:38:27;4.50;99.90
17986;DHT22;9118;48.122;11.546;2023-02-01T07:40:57;4.50;99.90
17986;DHT22;9118;48.122;11.546;2023-02-01T07:43:24;4.50;99.90
17986;DHT22;9118;48.122;11.546;2023-02-01T07:45:51;4.50;99.90
17986;DHT22;9118;48.122;11.546;2023-02-01T07:48:19;4.50;99.90
17986;DHT22;9118;48.122;11.546;2023-02-01T07:50:47;4.50;99.90
17986;DHT22;9118;48.122;11.546;2023-02-01T07:53:14;5.00;99.90
17986;DHT22;9118;48.122;11.546;2023-02-01T07:55:41;4.50;99.90
17986;DHT22;9118;48.122;11.546;2023-02-01T07:58:08;4.60;99.90
17986;DHT22;9118;48.122;11.546;2023-02-01T08:00:35;4.60;99.90
17986;DHT22;9118;48.122;11.546;2023-02-01T08:03:19;4.50;99.90
17986;DHT22;9118;48.122;11.546;2023-02-01T08:05:48;5.00;99.90
17986;DHT22;9118;48.122;11.546;2023-02-01T08:08:15;4.60;99.90
17986;DHT22;9118;48.122;11.546;2023-02-01T08:10:41;4.80;99.90
17986;DHT22;9118;48.122;11.546;2023-02-01T08:13:08;4.70;99.90
17986;DHT22;9118;48.122;11.546;2023-02-01T08:15:38;4.60;99.90
17986;DHT22;9118;48.122;11.546;2023-02-01T08:18:05;4.60;99.90
17986;DHT22;9118;48.122;11.546;2023-02-01T08:20:32;4.70;99.90
17986;DHT22;9118;48.122;11.546;2023-02-01T08:23:03;5.00;99.90
17986;DHT22;9118;48.122;11.546;2023-02-01T08:25:29;4.80;99.90
17986;DHT22;9118;48.122;11.546;2023-02-01T08:27:57;5.10;99.90
17986;DHT22;9118;48.122;11.546;2023-02-01T08:30:24;5.20;99.90
17986;DHT22;9118;48.122;11.546;2023-02-01T08:32:53;5.10;99.90
17986;DHT22;9118;48.122;11.546;2023-02-01T08:35:20;4.90;99.90
17986;DHT22;9118;48.122;11.546;2023-02-01T08:37:47;4.90;99.90
17986;DHT22;9118;48.122;11.546;2023-02-01T08:40:15;4.90;99.90
17986;DHT22;9118;48.122;11.546;2023-02-01T08:42:42;4.90;99.90
17986;DHT22;9118;48.122;11.546;2023-02-01T08:45:19;4.90;99.90
17986;DHT22;9118;48.122;11.546;2023-02-01T08:47:47;5.30;99.90
17986;DHT22;9118;48.122;11.546;2023-02-01T08:50:14;5.40;99.90
17986;DHT22;9118;48.122;11.546;2023-02-01T08:52:41;5.10;99.90
17986;DHT22;9118;48.122;11.546;2023-02-01T08:55:09;5.10;99.90
17986;DHT22;9118;48.122;11.546;2023-02-01T08:57:37;5.20;99.90
17986;DHT22;9118;48.122;11.546;2023-02-01T09:00:07;5.10;99.90
17986;DHT22;9118;48.122;11.546;2023-02-01T09:02:35;5.20;99.90
17986;DHT22;9118;48.122;11.546;2023-02-01T09:05:02;5.20;99.90
17986;DHT22;9118;48.122;11.546;2023-02-01T09:07:30;5.60;99.90
17986;DHT22;9118;48.122;11.546;2023-02-01T09:09:57;5.50;99.90
17986;DHT22;9118;48.122;11.546;2023-02-01T09:12:26;5.30;99.90
17986;DHT22;9118;48.122;11.546;2023-02-01T09:14:55;5.20;99.90
17986;DHT22;9118;48.122;11.546;2023-02-01T09:17:22;5.40;99.90
17986;DHT22;9118;48.122;11.546;2023-02-01T09:22:16;5.40;99.90
17986;DHT22;9118;48.122;11.546;2023-02-01T09:24:45;5.50;99.90
17986;DHT22;9118;48.122;11.546;2023-02-01T09:27:12;5.50;99.90
17986;DHT22;9118;48.122;11.546;2023-02-01T09:29:39;5.70;99.90
17986;DHT22;9118;48.122;11.546;2023-02-01T09:32:08;5.70;99.90
17986;DHT22;9118;48.122;11.546;2023-02-01T09:34:35;5.50;99.90
17986;DHT22;9118;48.122;11.546;2023-02-01T09:37:02;5.60;99.90
17986;DHT22;9118;48.122;11.546;2023-02-01T09:39:29;5.60;99.90
17986;DHT22;9118;48.122;11.546;2023-02-01T09:44:44;5.40;99.90
17986;DHT22;9118;48.122;11.546;2023-02-01T09:47:18;5.70;99.90
17986;DHT22;9118;48.122;11.546;2023-02-01T09:49:52;5.70;99.90
17986;DHT22;9118;48.122;11.546;2023-02-01T09:52:27;6.00;99.90
17986;DHT22;9118;48.122;11.546;2023-02-01T09:54:59;5.80;99.90
17986;DHT22;9118;48.122;11.546;2023-02-01T10:00:03;4.80;99.90
17986;DHT22;9118;48.122;11.546;2023-02-01T10:02:34;5.70;99.90
17986;DHT22;9118;48.122;11.546;2023-02-01T10:07:35;4.90;99.90
17986;DHT22;9118;48.122;11.546;2023-02-01T10:10:10;6.20;99.90
17986;DHT22;9118;48.122;11.546;2023-02-01T10:16:02;5.70;99.90
17986;DHT22;9118;48.122;11.546;2023-02-01T10:18:47;5.80;99.90
17986;DHT22;9118;48.122;11.546;2023-02-01T10:21:23;5.60;99.90
17986;DHT22;9118;48.122;11.546;2023-02-01T10:24:19;5.90;99.90
17986;DHT22;9118;48.122;11.546;2023-02-01T10:26:53;5.60;99.90
17986;DHT22;9118;48.122;11.546;2023-02-01T10:29:25;6.00;99.90
17986;DHT22;9118;48.122;11.546;2023-02-01T10:31:54;5.70;99.90
17986;DHT22;9118;48.122;11.546;2023-02-01T10:34:26;5.70;99.90
17986;DHT22;9118;48.122;11.546;2023-02-01T10:36:56;5.70;99.90
17986;DHT22;9118;48.122;11.546;2023-02-01T10:39:24;5.70;99.90
17986;DHT22;9118;48.122;11.546;2023-02-01T10:41:51;5.50;99.90
17986;DHT22;9118;48.122;11.546;2023-02-01T10:44:22;5.60;99.90
17986;DHT22;9118;48.122;11.546;2023-02-01T10:46:51;5.70;99.90
17986;DHT22;9118;48.122;11.546;2023-02-01T10:49:21;6.20;99.90
17986;DHT22;9118;48.122;11.546;2023-02-01T10:51:55;6.00;99.90
17986;DHT22;9118;48.122;11.546;2023-02-01T10:54:33;6.10;99.90
17986;DHT22;9118;48.122;11.546;2023-02-01T10:57:00;5.90;99.90
17986;DHT22;9118;48.122;11.546;2023-02-01T10:59:29;5.80;99.90
17986;DHT22;9118;48.122;11.546;2023-02-01T11:01:59;5.70;99.90
17986;DHT22;9118;48.122;11.546;2023-02-01T11:04:37;5.80;99.90
17986;DHT22;9118;48.122;11.546;2023-02-01T11:07:12;5.90;99.90
17986;DHT22;9118;48.122;11.546;2023-02-01T11:09:49;5.90;99.90
17986;DHT22;9118;48.122;11.546;2023-02-01T11:12:29;5.70;99.90
17986;DHT22;9118;48.122;11.546;2023-02-01T11:15:11;6.00;99.90
17986;DHT22;9118;48.122;11.546;2023-02-01T11:17:42;5.80;99.90
17986;DHT22;9118;48.122;11.546;2023-02-01T11:20:14;5.90;99.90
17986;DHT22;9118;48.122;11.546;2023-02-01T11:22:47;5.70;99.90
17986;DHT22;9118;48.122;11.546;2023-02-01T11:25:16;6.00;99.90
17986;DHT22;9118;48.122;11.546;2023-02-01T11:27:44;5.90;99.90
17986;DHT22;9118;48.122;11.546;2023-02-01T11:30:16;6.00;99.90
17986;DHT22;9118;48.122;11.546;2023-02-01T11:32:45;5.80;99.90
17986;DHT22;9118;48.122;11.546;2023-02-01T11:35:15;5.70;99.90
17986;DHT22;9118;48.122;11.546;2023-02-01T11:37:52;5.70;99.90
17986;DHT22;9118;48.122;11.546;2023-02-01T11:40:27;5.50;99.90
17986;DHT22;9118;48.122;11.546;2023-02-01T11:42:56;5.50;99.90
17986;DHT22;9118;48.122;11.546;2023-02-01T11:45:26;5.70;99.90
17986;DHT22;9118;48.122;11.546;2023-02-01T11:47:54;5.40;99.90
17986;DHT22;9118;48.122;11.546;2023-02-01T11:50:28;5.30;99.90
17986;DHT22;9118;48.122;11.546;2023-02-01T11:53:20;5.30;99.90
17986;DHT22;9118;48.122;11.546;2023-02-01T11:55:58;5.50;99.90
17986;DHT22;9118;48.122;11.546;2023-02-01T12:04:10;5.30;99.90
17986;DHT22;9118;48.122;11.546;2023-02-01T12:06:49;5.70;99.90
17986;DHT22;9118;48.122;11.546;2023-02-01T12:09:45;5.50;99.90
17986;DHT22;9118;48.122;11.546;2023-02-01T12:12:19;5.50;99.90
17986;DHT22;9118;48.122;11.546;2023-02-01T12:14:59;5.50;99.90
17986;DHT22;9118;48.122;11.546;2023-02-01T12:17:45;5.70;99.90
17986;DHT22;9118;48.122;11.546;2023-02-01T12:20:23;5.40;99.90
17986;DHT22;9118;48.122;11.546;2023-02-01T12:23:05;5.90;99.90
17986;DHT22;9118;48.122;11.546;2023-02-01T12:25:53;5.30;99.90
17986;DHT22;9118;48.122;11.546;2023-02-01T12:28:37;5.70;99.90
17986;DHT22;9118;48.122;11.546;2023-02-01T12:33:49;5.10;99.90
17986;DHT22;9118;48.122;11.546;2023-02-01T12:36:25;5.00;99.90
17986;DHT22;9118;48.122;11.546;2023-02-01T12:39:04;5.50;99.90
17986;DHT22;9118;48.122;11.546;2023-02-01T12:41:47;5.20;99.90
17986;DHT22;9118;48.122;11.546;2023-02-01T12:44:26;5.10;99.90
17986;DHT22;9118;48.122;11.546;2023-02-01T12:46:56;5.40;99.90
17986;DHT22;9118;48.122;11.546;2023-02-01T12:49:31;5.10;99.90
17986;DHT22;9118;48.122;11.546;2023-02-01T12:52:05;5.00;99.90
17986;DHT22;9118;48.122;11.546;2023-02-01T12:54:37;5.20;99.90
17986;DHT22;9118;48.122;11.546;2023-02-01T12:57:12;5.40;99.90
17986;DHT22;9118;48.122;11.546;2023-02-01T12:59:43;4.90;99.90
17986;DHT22;9118;48.122;11.546;2023-02-01T13:02:15;5.00;99.90
17986;DHT22;9118;48.122;11.546;2023-02-01T13:04:53;5.30;99.90
17986;DHT22;9118;48.122;11.546;2023-02-01T13:07:27;5.60;99.90
17986;DHT22;9118;48.122;11.546;2023-02-01T13:09:59;5.00;99.90
17986;DHT22;9118;48.122;11.546;2023-02-01T13:12:35;5.00;99.90
17986;DHT22;9118;48.122;11.546;2023-02-01T13:15:09;5.10;99.90
17986;DHT22;9118;48.122;11.546;2023-02-01T13:17:38;5.10;99.90
17986;DHT22;9118;48.122;11.546;2023-02-01T13:20:15;5.50;99.90
17986;DHT22;9118;48.122;11.546;2023-02-01T13:22:46;5.30;99.90
17986;DHT22;9118;48.122;11.546;2023-02-01T13:25:19;5.50;99.90
17986;DHT22;9118;48.122;11.546;2023-02-01T13:27:53;5.30;99.90
17986;DHT22;9118;48.122;11.546;2023-02-01T13:30:25;5.40;99.90
17986;DHT22;9118;48.122;11.546;2023-02-01T13:33:15;5.20;99.90
17986;DHT22;9118;48.122;11.546;2023-02-01T13:41:55;5.20;99.90
17986;DHT22;9118;48.122;11.546;2023-02-01T13:44:28;5.00;99.90
17986;DHT22;9118;48.122;11.546;2023-02-01T13:47:00;5.30;99.90
17986;DHT22;9118;48.122;11.546;2023-02-01T13:49:30;5.30;99.90
17986;DHT22;9118;48.122;11.546;2023-02-01T13:51:59;5.30;99.90
17986;DHT22;9118;48.122;11.546;2023-02-01T13:54:31;5.30;99.90
17986;DHT22;9118;48.122;11.546;2023-02-01T13:56:59;5.30;99.90
17986;DHT22;9118;48.122;11.546;2023-02-01T13:59:51;4.00;99.90
17986;DHT22;9118;48.122;11.546;2023-02-01T14:09:14;5.30;99.90
17986;DHT22;9118;48.122;11.546;2023-02-01T14:11:45;5.20;99.90
17986;DHT22;9118;48.122;11.546;2023-02-01T14:14:48;5.20;99.90
17986;DHT22;9118;48.122;11.546;2023-02-01T14:17:39;5.00;99.90
17986;DHT22;9118;48.122;11.546;2023-02-01T14:20:39;5.40;99.90
17986;DHT22;9118;48.122;11.546;2023-02-01T14:23:14;5.10;99.90
17986;DHT22;9118;48.122;11.546;2023-02-01T14:25:42;5.20;99.90
17986;DHT22;9118;48.122;11.546;2023-02-01T14:28:23;5.20;99.90
17986;DHT22;9118;48.122;11.546;2023-02-01T14:30:53;5.10;99.90
17986;DHT22;9118;48.122;11.546;2023-02-01T14:33:23;5.10;99.90
17986;DHT22;9118;48.122;11.546;2023-02-01T14:36:09;5.10;99.90
17986;DHT22;9118;48.122;11.546;2023-02-01T14:38:37;5.10;99.90
17986;DHT22;9118;48.122;11.546;2023-02-01T14:41:25;5.00;99.90
17986;DHT22;9118;48.122;11.546;2023-02-01T14:44:21;5.20;99.90
17986;DHT22;9118;48.122;11.546;2023-02-01T14:50:13;5.10;99.90
17986;DHT22;9118;48.122;11.546;2023-02-01T14:52:44;5.30;99.90
17986;DHT22;9118;48.122;11.546;2023-02-01T14:55:15;5.00;99.90
17986;DHT22;9118;48.122;11.546;2023-02-01T14:57:46;5.10;99.90
17986;DHT22;9118;48.122;11.546;2023-02-01T15:00:20;5.10;99.90
17986;DHT22;9118;48.122;11.546;2023-02-01T15:02:50;5.40;99.90
17986;DHT22;9118;48.122;11.546;2023-02-01T15:05:29;5.30;99.90
17986;DHT22;9118;48.122;11.546;2023-02-01T15:08:04;5.00;99.90
17986;DHT22;9118;48.122;11.546;2023-02-01T15:10:33;5.40;99.90
17986;DHT22;9118;48.122;11.546;2023-02-01T15:13:18;5.00;99.90
17986;DHT22;9118;48.122;11.546;2023-02-01T15:15:45;5.00;99.90
17986;DHT22;9118;48.122;11.546;2023-02-01T15:18:27;5.00;99.90
17986;DHT22;9118;48.122;11.546;2023-02-01T15:20:57;5.00;99.90
17986;DHT22;9118;48.122;11.546;2023-02-01T15:23:24;4.80;99.90
17986;DHT22;9118;48.122;11.546;2023-02-01T15:25:54;4.90;99.90
17986;DHT22;9118;48.122;11.546;2023-02-01T15:28:22;4.90;99.90
17986;DHT22;9118;48.122;11.546;2023-02-01T15:30:57;5.20;99.90
17986;DHT22;9118;48.122;11.546;2023-02-01T15:33:24;4.90;99.90
17986;DHT22;9118;48.122;11.546;2023-02-01T15:35:54;5.30;99.90
17986;DHT22;9118;48.122;11.546;2023-02-01T15:38:32;4.60;99.90
17986;DHT22;9118;48.122;11.546;2023-02-01T15:41:02;4.80;99.90
17986;DHT22;9118;48.122;11.546;2023-02-01T15:43:32;4.50;99.90
17986;DHT22;9118;48.122;11.546;2023-02-01T15:46:00;4.60;99.90
17986;DHT22;9118;48.122;11.546;2023-02-01T15:48:34;4.70;99.90
17986;DHT22;9118;48.122;11.546;2023-02-01T15:51:04;4.60;99.90
17986;DHT22;9118;48.122;11.546;2023-02-01T15:58:28;4.30;99.90
17986;DHT22;9118;48.122;11.546;2023-02-01T16:00:59;4.30;99.90
17986;DHT22;9118;48.122;11.546;2023-02-01T16:03:35;4.90;99.90
17986;DHT22;9118;48.122;11.546;2023-02-01T16:06:06;4.90;99.90
17986;DHT22;9118;48.122;11.546;2023-02-01T16:08:33;4.50;99.90
17986;DHT22;9118;48.122;11.546;2023-02-01T16:18:39;4.50;99.90
17986;DHT22;9118;48.122;11.546;2023-02-01T16:21:08;4.40;99.90
17986;DHT22;9118;48.122;11.546;2023-02-01T16:23:35;4.40;99.90
17986;DHT22;9118;48.122;11.546;2023-02-01T16:26:02;4.40;99.90
17986;DHT22;9118;48.122;11.546;2023-02-01T16:28:29;4.50;99.90
17986;DHT22;9118;48.122;11.546;2023-02-01T16:30:57;4.80;99.90
17986;DHT22;9118;48.122;11.546;2023-02-01T16:33:24;4.50;99.90
17986;DHT22;9118;48.122;11.546;2023-02-01T16:35:52;4.60;99.90
17986;DHT22;9118;48.122;11.546;2023-02-01T16:38:20;4.60;99.90
17986;DHT22;9118;48.122;11.546;2023-02-01T16:40:49;5.00;99.90
17986;DHT22;9118;48.122;11.546;2023-02-01T16:43:18;4.90;99.90
17986;DHT22;9118;48.122;11.546;2023-02-01T16:45:46;4.70;99.90
17986;DHT22;9118;48.122;11.546;2023-02-01T16:48:19;4.60;99.90
17986;DHT22;9118;48.122;11.546;2023-02-01T16:50:50;4.70;99.90
17986;DHT22;9118;48.122;11.546;2023-02-01T16:53:19;4.80;99.90
17986;DHT22;9118;48.122;11.546;2023-02-01T16:55:47;4.70;99.90
17986;DHT22;9118;48.122;11.546;2023-02-01T16:58:15;4.70;99.90
17986;DHT22;9118;48.122;11.546;2023-02-01T17:00:42;5.10;99.90
17986;DHT22;9118;48.122;11.546;2023-02-01T17:03:10;5.40;99.90
17986;DHT22;9118;48.122;11.546;2023-02-01T17:05:38;5.20;99.90
17986;DHT22;9118;48.122;11.546;2023-02-01T17:08:06;6.20;99.90
17986;DHT22;9118;48.122;11.546;2023-02-01T17:10:36;4.80;99.90
17986;DHT22;9118;48.122;11.546;2023-02-01T17:13:03;4.80;99.90
17986;DHT22;9118;48.122;11.546;2023-02-01T17:15:32;4.80;99.90
17986;DHT22;9118;48.122;11.546;2023-02-01T17:18:02;5.00;99.90
17986;DHT22;9118;48.122;11.546;2023-02-01T17:20:30;4.80;99.90
17986;DHT22;9118;48.122;11.546;2023-02-01T17:22:58;4.90;99.90
17986;DHT22;9118;48.122;11.546;2023-02-01T17:25:26;5.20;99.90